Time;durP1;ratioP1;P1;durP2;ratioP2;P2;SDS_P1;SDS_P2;PMS_P1;PMS_P2;Temp;Humidity;BMP_temperature;BMP_pressure;BME280_temperature;BME280_humidity;BME280_pressure;Samples;Min_cycle;Max_cycle;Signal;HPM_P1;HPM_P2
2024/02/03 00:01:17;;;;;;;1.30;0.40;;;6.70;99.90;;;;;;5035105;28;20220;-61
2024/02/03 00:03:44;;;;;;;3.70;0.40;;;6.60;99.90;;;;;;5034976;28;20211;-61
2024/02/03 00:06:12;;;;;;;0.97;0.30;;;;;;;;;;5035519;28;20719;-61
2024/02/03 00:08:39;;;;;;;0.10;0.10;;;;;;;;;;5036472;28;20714;-61
2024/02/03 00:11:10;;;;;;;0.30;0.20;;;6.50;99.90;;;;;;5035785;28;20274;-61
2024/02/03 00:13:37;;;;;;;2.37;0.57;;;6.50;99.90;;;;;;5035001;28;20209;-61
2024/02/03 00:16:07;;;;;;;1.60;0.20;;;6.60;99.90;;;;;;5035835;28;20270;-61
2024/02/03 00:18:34;;;;;;;0.17;0.17;;;6.70;99.90;;;;;;5035725;28;20641;-61
2024/02/03 00:21:02;;;;;;;0.30;0.23;;;6.60;99.90;;;;;;5035404;28;20830;-61
2024/02/03 00:23:30;;;;;;;0.13;0.13;;;6.60;99.90;;;;;;5035023;28;20211;-61
2024/02/03 00:25:57;;;;;;;0.30;0.27;;;6.70;99.90;;;;;;5036407;28;20205;-61
2024/02/03 00:28:24;;;;;;;0.70;0.20;;;6.80;99.90;;;;;;5035197;28;20259;-61
2024/02/03 00:30:51;;;;;;;1.17;0.40;;;;;;;;;;5035198;28;20277;-62
2024/02/03 00:33:18;;;;;;;0.27;0.23;;;6.70;99.90;;;;;;5034480;28;20208;-62
2024/02/03 00:35:45;;;;;;;0.33;0.30;;;6.70;99.90;;;;;;5035163;28;20291;-61
2024/02/03 00:38:12;;;;;;;0.20;0.20;;;6.80;99.90;;;;;;5035255;28;20208;-62
2024/02/03 00:40:40;;;;;;;0.43;0.30;;;6.90;99.90;;;;;;5036014;28;20401;-62
2024/02/03 00:43:07;;;;;;;0.70;0.30;;;6.90;99.90;;;;;;5040943;28;20237;-61
2024/02/03 00:45:34;;;;;;;0.30;0.30;;;6.90;99.90;;;;;;5054977;28;20250;-61
2024/02/03 00:48:01;;;;;;;0.43;0.20;;;6.90;99.90;;;;;;5054849;28;20204;-61
2024/02/03 00:50:29;;;;;;;0.27;0.20;;;;;;;;;;5054784;28;20253;-61
2024/02/03 00:52:56;;;;;;;0.10;0.10;;;;;;;;;;5054150;28;20204;-61
2024/02/03 00:55:23;;;;;;;0.93;0.20;;;6.90;99.90;;;;;;5055029;28;20202;-61
2024/02/03 00:57:51;;;;;;;0.30;0.30;;;6.90;99.90;;;;;;5050169;28;20255;-61
2024/02/03 01:00:22;;;;;;;0.20;0.20;;;6.90;99.90;;;;;;5041946;28;20245;-61
2024/02/03 01:02:50;;;;;;;0.10;0.10;;;6.90;99.90;;;;;;5053301;28;20203;-61
2024/02/03 01:05:17;;;;;;;0.20;0.20;;;6.90;99.90;;;;;;5054845;28;20659;-62
2024/02/03 01:07:44;;;;;;;0.20;0.20;;;6.90;99.90;;;;;;5054710;28;20245;-61
2024/02/03 01:10:11;;;;;;;0.67;0.37;;;7.00;99.90;;;;;;5054523;28;20205;-61
2024/02/03 01:12:38;;;;;;;0.33;0.33;;;7.00;99.90;;;;;;5052383;28;20227;-61
2024/02/03 01:15:07;;;;;;;0.40;0.40;;;7.00;99.90;;;;;;5050431;28;20663;-61
2024/02/03 01:17:34;;;;;;;0.30;0.20;;;7.00;99.90;;;;;;5053769;28;20572;-61
2024/02/03 01:20:02;;;;;;;0.20;0.20;;;6.90;99.90;;;;;;5057673;28;20202;-61
2024/02/03 01:22:29;;;;;;;0.20;0.20;;;6.80;99.90;;;;;;5053844;28;20262;-62
2024/02/03 01:24:56;;;;;;;0.20;0.20;;;6.70;99.90;;;;;;5054372;28;20208;-62
2024/02/03 01:27:23;;;;;;;0.20;0.20;;;6.60;99.90;;;;;;5054585;28;20614;-61
2024/02/03 01:29:50;;;;;;;0.30;0.30;;;6.60;99.90;;;;;;5054373;28;20675;-61
2024/02/03 01:32:18;;;;;;;0.63;0.30;;;6.60;99.90;;;;;;5040823;28;20572;-62
2024/02/03 01:34:45;;;;;;;0.40;0.40;;;6.50;99.90;;;;;;5035030;28;20259;-61
2024/02/03 01:37:12;;;;;;;0.67;0.20;;;6.50;99.90;;;;;;5037065;28;20236;-61
2024/02/03 01:39:39;;;;;;;0.43;0.43;;;6.30;99.90;;;;;;5034008;28;20208;-62
2024/02/03 01:42:06;;;;;;;0.50;0.50;;;;;;;;;;5033074;28;20742;-61
2024/02/03 01:44:33;;;;;;;1.83;0.30;;;6.30;99.90;;;;;;5034065;28;20208;-61
2024/02/03 01:47:00;;;;;;;0.30;0.20;;;6.30;99.90;;;;;;5034243;28;20200;-61
2024/02/03 01:49:31;;;;;;;0.60;0.30;;;6.20;99.90;;;;;;5043778;28;20204;-61
2024/02/03 01:51:59;;;;;;;0.30;0.30;;;6.20;99.90;;;;;;5052854;28;20320;-61
2024/02/03 01:54:28;;;;;;;0.30;0.30;;;6.10;99.90;;;;;;5051379;28;20200;-61
2024/02/03 01:56:58;;;;;;;0.57;0.30;;;;;;;;;;5053457;28;20289;-61
2024/02/03 01:59:27;;;;;;;2.23;0.87;;;5.90;99.90;;;;;;5051777;28;20209;-61
2024/02/03 02:01:56;;;;;;;0.40;0.40;;;5.90;99.90;;;;;;5052990;28;20253;-61
2024/02/03 02:04:24;;;;;;;0.37;0.37;;;5.80;99.90;;;;;;5053678;28;20203;-61
2024/02/03 02:06:52;;;;;;;0.43;0.43;;;5.70;99.90;;;;;;5033891;28;20254;-61
2024/02/03 02:09:20;;;;;;;0.90;0.90;;;5.70;99.90;;;;;;5033324;28;20672;-61
2024/02/03 02:11:47;;;;;;;1.60;0.53;;;5.60;99.90;;;;;;5032563;28;20224;-61
2024/02/03 02:14:14;;;;;;;1.57;0.90;;;;;;;;;;5033613;28;20212;-61
2024/02/03 02:16:41;;;;;;;1.17;0.77;;;5.30;99.90;;;;;;5033423;28;20243;-61
2024/02/03 02:19:08;;;;;;;1.13;0.50;;;5.40;99.90;;;;;;5033443;28;20355;-61
2024/02/03 02:21:36;;;;;;;2.27;0.90;;;5.40;99.90;;;;;;5033871;28;20645;-61
2024/02/03 02:24:04;;;;;;;0.50;0.40;;;5.40;99.90;;;;;;5035838;28;20204;-61
2024/02/03 02:26:30;;;;;;;0.47;0.43;;;5.40;99.90;;;;;;5033451;28;20200;-62
2024/02/03 02:28:57;;;;;;;2.53;0.40;;;5.50;99.90;;;;;;5033487;28;20205;-61
2024/02/03 02:31:24;;;;;;;1.70;0.43;;;5.50;99.90;;;;;;5033136;28;20278;-61
2024/02/03 02:33:52;;;;;;;0.30;0.30;;;6.00;99.90;;;;;;5032448;28;20203;-61
2024/02/03 02:36:19;;;;;;;0.13;0.13;;;;;;;;;;5033020;28;20307;-61
2024/02/03 02:38:47;;;;;;;0.30;0.30;;;5.50;99.90;;;;;;5035636;28;20253;-62
2024/02/03 02:41:14;;;;;;;0.20;0.20;;;6.10;99.90;;;;;;5035938;28;20725;-61
2024/02/03 02:43:41;;;;;;;0.20;0.20;;;5.60;99.90;;;;;;5032193;28;20208;-61
2024/02/03 02:46:09;;;;;;;0.10;0.10;;;5.70;99.90;;;;;;5032869;28;20208;-61
2024/02/03 02:48:36;;;;;;;0.20;0.20;;;5.60;99.90;;;;;;5032943;28;20207;-61
2024/02/03 02:51:03;;;;;;;0.20;0.13;;;5.60;99.90;;;;;;5032979;28;20282;-61
2024/02/03 02:53:30;;;;;;;1.70;0.30;;;5.50;99.90;;;;;;5031824;28;20592;-61
2024/02/03 02:55:59;;;;;;;0.47;0.47;;;5.50;99.90;;;;;;5032604;28;20789;-61
2024/02/03 02:58:26;;;;;;;0.77;0.20;;;5.60;99.90;;;;;;5032568;28;20207;-61
2024/02/03 03:00:53;;;;;;;0.30;0.27;;;5.80;99.90;;;;;;5032394;28;20293;-61
2024/02/03 03:03:20;;;;;;;2.40;0.60;;;5.90;99.90;;;;;;5031603;28;20208;-62
2024/02/03 03:05:47;;;;;;;0.23;0.23;;;5.50;99.90;;;;;;5051761;28;20203;-61
2024/02/03 03:08:14;;;;;;;0.37;0.20;;;5.40;99.90;;;;;;5052183;28;20744;-61
2024/02/03 03:10:41;;;;;;;0.60;0.53;;;5.40;99.90;;;;;;5052015;28;20681;-61
2024/02/03 03:13:09;;;;;;;3.47;1.13;;;5.20;99.90;;;;;;5051223;28;20207;-61
2024/02/03 03:15:36;;;;;;;1.30;1.20;;;5.90;99.90;;;;;;5052126;28;20278;-61
2024/02/03 03:18:03;;;;;;;1.60;1.50;;;5.70;99.90;;;;;;5051847;28;20228;-61
2024/02/03 03:20:30;;;;;;;3.40;2.60;;;5.60;99.90;;;;;;5051494;28;20203;-61
2024/02/03 03:22:57;;;;;;;6.57;3.00;;;5.50;99.90;;;;;;5051015;28;20209;-61
2024/02/03 03:25:24;;;;;;;4.27;3.90;;;5.50;99.90;;;;;;5051893;28;20278;-61
2024/02/03 03:27:51;;;;;;;4.13;3.77;;;5.40;99.90;;;;;;5051970;28;20298;-61
2024/02/03 03:30:19;;;;;;;3.73;3.33;;;5.60;99.90;;;;;;5051778;28;20252;-61
2024/02/03 03:32:46;;;;;;;4.90;4.20;;;5.70;99.90;;;;;;5050858;28;20652;-61
2024/02/03 03:35:13;;;;;;;4.67;3.93;;;5.70;99.90;;;;;;5051442;28;20249;-61
2024/02/03 03:37:40;;;;;;;4.33;3.90;;;5.80;99.90;;;;;;5051031;28;20275;-61
2024/02/03 03:40:08;;;;;;;4.70;4.30;;;5.80;99.90;;;;;;5051921;28;20199;-61
2024/02/03 03:42:35;;;;;;;5.50;5.00;;;5.80;99.90;;;;;;5050676;28;20269;-61
2024/02/03 03:45:02;;;;;;;7.90;5.77;;;5.70;99.90;;;;;;5051642;28;20252;-61
2024/02/03 03:47:31;;;;;;;6.07;5.63;;;;;;;;;;5051739;28;20200;-61
2024/02/03 03:49:58;;;;;;;5.10;4.70;;;5.60;99.90;;;;;;5051920;28;20208;-61
2024/02/03 03:52:25;;;;;;;5.30;4.53;;;5.40;99.90;;;;;;5050730;28;20596;-61
2024/02/03 03:54:51;;;;;;;5.20;4.70;;;5.30;99.90;;;;;;5050929;28;20257;-61
2024/02/03 03:57:18;;;;;;;7.70;4.97;;;5.30;99.90;;;;;;5051841;28;20220;-61
2024/02/03 03:59:46;;;;;;;4.93;4.53;;;;;;;;;;5049253;28;20649;-62
2024/02/03 04:02:15;;;;;;;6.53;4.17;;;4.90;99.90;;;;;;5050707;28;20259;-61
2024/02/03 04:04:43;;;;;;;4.77;4.47;;;5.10;99.90;;;;;;5049311;28;20292;-62
2024/02/03 04:07:10;;;;;;;4.17;3.70;;;4.90;99.90;;;;;;5051604;28;20619;-61
2024/02/03 04:09:37;;;;;;;5.07;4.57;;;4.80;99.90;;;;;;5051541;28;20252;-61
2024/02/03 04:12:05;;;;;;;4.03;3.40;;;;;;;;;;5034929;28;20606;-61
2024/02/03 04:14:32;;;;;;;4.77;3.03;;;;;;;;;;5031562;28;20217;-61
2024/02/03 04:16:59;;;;;;;3.27;3.07;;;4.50;99.90;;;;;;5031943;28;20276;-61
2024/02/03 04:19:26;;;;;;;3.27;2.97;;;4.60;99.90;;;;;;5031697;28;20261;-61
2024/02/03 04:21:54;;;;;;;3.03;2.80;;;4.60;99.90;;;;;;5031001;28;20224;-62
2024/02/03 04:24:21;;;;;;;3.13;2.83;;;4.70;99.90;;;;;;5031621;28;20204;-61
2024/02/03 04:26:48;;;;;;;2.00;1.90;;;4.60;99.90;;;;;;5031315;28;20248;-61
2024/02/03 04:29:15;;;;;;;2.53;2.23;;;4.50;99.90;;;;;;5049739;28;20256;-62
2024/02/03 04:31:42;;;;;;;2.33;1.97;;;4.60;99.90;;;;;;5051451;28;20777;-61
2024/02/03 04:34:09;;;;;;;2.40;2.20;;;4.50;99.90;;;;;;5050695;28;20201;-61
2024/02/03 04:36:36;;;;;;;2.30;2.10;;;4.60;99.90;;;;;;5051494;28;20203;-61
2024/02/03 04:39:05;;;;;;;2.13;2.00;;;4.50;99.90;;;;;;5051628;28;20220;-61
2024/02/03 04:41:32;;;;;;;3.03;2.83;;;4.60;99.90;;;;;;5051172;28;20713;-61
2024/02/03 04:43:58;;;;;;;11.97;7.40;;;4.60;99.90;;;;;;5049959;28;20202;-61
2024/02/03 04:46:25;;;;;;;7.43;5.13;;;4.60;99.90;;;;;;5053116;28;20619;-61
2024/02/03 04:48:53;;;;;;;5.73;4.10;;;4.60;99.90;;;;;;5054917;28;20227;-61
2024/02/03 04:51:20;;;;;;;4.80;4.37;;;4.60;99.90;;;;;;5058476;28;20267;-61
2024/02/03 04:53:47;;;;;;;10.47;5.27;;;4.50;99.90;;;;;;5054154;28;20207;-62
2024/02/03 04:56:15;;;;;;;4.87;3.53;;;4.60;99.90;;;;;;5054740;28;20204;-61
2024/02/03 04:58:42;;;;;;;6.33;4.37;;;4.60;99.90;;;;;;5054846;28;20227;-61
2024/02/03 05:01:09;;;;;;;4.53;3.77;;;4.40;99.90;;;;;;5054354;28;20280;-61
2024/02/03 05:03:37;;;;;;;7.47;5.17;;;;;;;;;;5053755;28;20686;-61
2024/02/03 05:06:04;;;;;;;6.30;4.37;;;;;;;;;;5056034;28;20256;-63
2024/02/03 05:08:31;;;;;;;10.53;6.73;;;4.80;99.90;;;;;;5058275;28;20617;-61
2024/02/03 05:10:59;;;;;;;8.23;5.90;;;4.50;99.90;;;;;;5054255;28;20274;-61
2024/02/03 05:13:28;;;;;;;8.97;6.23;;;4.30;99.90;;;;;;5053580;28;20632;-61
2024/02/03 05:15:55;;;;;;;5.70;5.00;;;;;;;;;;5054292;28;20200;-61
2024/02/03 05:18:22;;;;;;;8.60;5.13;;;3.80;99.90;;;;;;5044009;28;20278;-61
2024/02/03 05:20:49;;;;;;;5.13;3.80;;;4.40;99.90;;;;;;5034147;28;20220;-61
2024/02/03 05:23:16;;;;;;;4.17;3.87;;;4.20;99.90;;;;;;5033459;28;20209;-61
2024/02/03 05:25:43;;;;;;;5.10;4.20;;;3.80;99.90;;;;;;5035346;28;20251;-61
2024/02/03 05:28:10;;;;;;;3.67;3.37;;;;;;;;;;5034085;28;20200;-61
2024/02/03 05:30:38;;;;;;;3.57;3.33;;;4.00;99.90;;;;;;5034028;28;20274;-61
2024/02/03 05:33:06;;;;;;;8.90;4.13;;;4.00;99.90;;;;;;5033268;28;20739;-61
2024/02/03 05:35:32;;;;;;;4.03;3.60;;;4.10;99.90;;;;;;5034890;28;20276;-62
2024/02/03 05:37:59;;;;;;;4.17;3.73;;;4.00;99.90;;;;;;5034124;28;20222;-61
2024/02/03 05:40:26;;;;;;;3.03;2.83;;;4.00;99.90;;;;;;5033852;28;20254;-61
2024/02/03 05:42:53;;;;;;;5.87;3.53;;;4.00;99.90;;;;;;5032950;28;20206;-61
2024/02/03 05:45:22;;;;;;;3.10;2.80;;;;;;;;;;5033989;28;20253;-61
2024/02/03 05:47:50;;;;;;;3.43;2.90;;;4.00;99.90;;;;;;5033951;28;20245;-62
2024/02/03 05:50:17;;;;;;;2.70;2.50;;;4.00;99.90;;;;;;5033949;28;20208;-62
2024/02/03 05:52:44;;;;;;;2.50;2.30;;;4.10;99.90;;;;;;5034019;28;20786;-62
2024/02/03 05:55:12;;;;;;;3.53;2.27;;;;;;;;;;5037821;28;20202;-62
2024/02/03 05:57:49;;;;;;;2.70;2.50;;;4.30;99.90;;;;;;5032960;28;20224;-62
2024/02/03 06:00:17;;;;;;;2.10;1.80;;;4.00;99.90;;;;;;5033762;28;20207;-62
2024/02/03 06:02:43;;;;;;;1.93;1.83;;;3.80;99.90;;;;;;5030436;28;20228;-62
2024/02/03 06:05:12;;;;;;;2.03;1.90;;;4.00;99.90;;;;;;5033633;28;20205;-62
2024/02/03 06:07:39;;;;;;;2.50;2.27;;;4.00;99.90;;;;;;5031508;28;20251;-62
2024/02/03 06:10:07;;;;;;;1.50;1.40;;;4.00;99.90;;;;;;5038110;28;20197;-62
2024/02/03 06:12:34;;;;;;;4.03;2.17;;;4.00;99.90;;;;;;5033306;28;20282;-62
2024/02/03 06:15:01;;;;;;;2.87;1.60;;;4.20;99.90;;;;;;5033174;28;20256;-62
2024/02/03 06:17:28;;;;;;;3.43;3.13;;;4.20;99.90;;;;;;5033112;28;20593;-62
2024/02/03 06:19:56;;;;;;;2.97;2.43;;;;;;;;;;5033356;28;20203;-62
2024/02/03 06:22:26;;;;;;;3.93;3.63;;;4.10;99.90;;;;;;5032294;28;20233;-62
2024/02/03 06:24:53;;;;;;;8.00;4.43;;;4.10;99.90;;;;;;5033692;28;20205;-62
2024/02/03 06:27:22;;;;;;;3.47;2.90;;;4.10;99.90;;;;;;5032861;28;20204;-62
2024/02/03 06:29:49;;;;;;;6.43;3.80;;;3.80;99.90;;;;;;5032795;28;20205;-62
2024/02/03 06:32:16;;;;;;;4.67;4.23;;;3.90;99.90;;;;;;5032213;28;20225;-62
2024/02/03 06:34:43;;;;;;;4.20;3.20;;;;;;;;;;5032458;28;20736;-62
2024/02/03 06:37:10;;;;;;;6.07;5.03;;;3.10;99.90;;;;;;5032869;28;20254;-61
2024/02/03 06:39:39;;;;;;;9.60;7.00;;;;;;;;;;5032633;28;20226;-62
2024/02/03 06:42:06;;;;;;;9.73;6.17;;;3.60;99.90;;;;;;5032779;28;20266;-62
2024/02/03 06:44:33;;;;;;;8.63;6.33;;;;;;;;;;5032451;28;20688;-62
2024/02/03 06:47:00;;;;;;;5.73;5.13;;;3.70;99.90;;;;;;5032697;28;20204;-62
2024/02/03 06:49:27;;;;;;;7.10;6.40;;;3.90;99.90;;;;;;5032621;28;20677;-62
2024/02/03 06:51:54;;;;;;;6.87;6.17;;;3.70;99.90;;;;;;5031735;28;20248;-62
2024/02/03 06:54:21;;;;;;;6.73;5.87;;;3.50;99.90;;;;;;5032280;28;20553;-62
2024/02/03 06:56:49;;;;;;;7.53;6.17;;;3.70;99.90;;;;;;5033049;28;20212;-62
2024/02/03 06:59:16;;;;;;;13.23;7.83;;;3.70;99.90;;;;;;5033111;28;20235;-62
2024/02/03 07:01:43;;;;;;;5.43;4.97;;;3.50;99.90;;;;;;5032937;28;20619;-62
2024/02/03 07:04:10;;;;;;;8.10;5.77;;;3.20;99.90;;;;;;5051364;28;20253;-62
2024/02/03 07:06:37;;;;;;;6.07;5.57;;;3.60;99.90;;;;;;5052318;28;20334;-62
2024/02/03 07:09:04;;;;;;;6.10;5.53;;;3.70;99.90;;;;;;5051517;28;20207;-62
2024/02/03 07:11:31;;;;;;;10.20;6.20;;;3.60;99.90;;;;;;5051695;28;20225;-62
2024/02/03 07:13:59;;;;;;;10.17;5.23;;;3.60;99.90;;;;;;5051352;28;20208;-62
2024/02/03 07:16:27;;;;;;;7.43;5.47;;;3.60;99.90;;;;;;5046445;28;20196;-62
2024/02/03 07:18:54;;;;;;;5.80;4.70;;;3.60;99.90;;;;;;5042473;28;20272;-62
2024/02/03 07:21:21;;;;;;;6.33;5.70;;;3.60;99.90;;;;;;5051759;28;20280;-62
2024/02/03 07:23:49;;;;;;;7.27;5.57;;;;;;;;;;5051046;28;20294;-62
2024/02/03 07:26:16;;;;;;;5.60;5.20;;;3.30;99.90;;;;;;5051818;28;20295;-62
2024/02/03 07:28:43;;;;;;;7.40;4.83;;;3.40;99.90;;;;;;5052209;28;20203;-62
2024/02/03 07:31:11;;;;;;;7.60;6.90;;;3.60;99.90;;;;;;5051767;28;20251;-62
2024/02/03 07:33:38;;;;;;;7.23;6.63;;;3.70;99.90;;;;;;5043210;28;20200;-62
2024/02/03 07:36:06;;;;;;;11.57;7.30;;;3.60;99.90;;;;;;5043944;28;20249;-62
2024/02/03 07:38:33;;;;;;;6.83;6.13;;;3.60;99.90;;;;;;5051601;28;20218;-62
2024/02/03 07:41:00;;;;;;;8.37;6.00;;;4.20;99.90;;;;;;5051484;28;20774;-62
2024/02/03 07:43:27;;;;;;;8.80;6.47;;;;;;;;;;5050859;28;20200;-62
2024/02/03 07:45:54;;;;;;;7.43;5.40;;;3.70;99.90;;;;;;5051583;28;20255;-62
2024/02/03 07:48:22;;;;;;;5.57;4.50;;;3.90;99.90;;;;;;5051301;28;20192;-62
2024/02/03 07:50:49;;;;;;;6.13;5.47;;;3.80;99.90;;;;;;5051363;28;21102;-62
2024/02/03 07:53:16;;;;;;;5.30;4.87;;;4.10;99.90;;;;;;5050659;28;20203;-62
2024/02/03 07:55:43;;;;;;;6.27;5.73;;;4.10;99.90;;;;;;5051741;28;20197;-62
2024/02/03 07:58:10;;;;;;;7.03;5.80;;;4.10;99.90;;;;;;5051492;28;20215;-62
2024/02/03 08:00:37;;;;;;;6.93;4.83;;;4.30;99.90;;;;;;5051461;28;20257;-62
2024/02/03 08:03:04;;;;;;;7.17;5.20;;;4.30;99.90;;;;;;5050783;28;20208;-62
2024/02/03 08:05:32;;;;;;;5.57;4.57;;;4.30;99.90;;;;;;5039279;28;20200;-62
2024/02/03 08:08:00;;;;;;;5.70;4.40;;;4.50;99.90;;;;;;5029859;28;20206;-62
2024/02/03 08:10:28;;;;;;;13.20;9.07;;;4.70;99.90;;;;;;5031485;28;20202;-62
2024/02/03 08:12:55;;;;;;;14.93;8.57;;;5.00;99.90;;;;;;5028606;28;20752;-62
2024/02/03 08:15:22;;;;;;;7.20;5.17;;;4.90;99.90;;;;;;5031487;28;20605;-62
2024/02/03 08:17:49;;;;;;;3.83;3.27;;;5.00;99.90;;;;;;5031470;28;20208;-62
2024/02/03 08:20:16;;;;;;;4.73;3.13;;;;;;;;;;5035691;28;20208;-62
2024/02/03 08:22:45;;;;;;;5.13;2.90;;;5.50;99.90;;;;;;5036843;28;20302;-62
2024/02/03 08:25:12;;;;;;;4.17;2.53;;;;;;;;;;5043992;28;20204;-62
2024/02/03 08:27:39;;;;;;;3.97;2.40;;;;;;;;;;5055398;28;20211;-62
2024/02/03 08:30:07;;;;;;;3.70;2.40;;;;;;;;;;5055740;28;20196;-63
2024/02/03 08:32:34;;;;;;;2.80;2.43;;;6.00;99.90;;;;;;5054874;28;20744;-62
2024/02/03 08:35:01;;;;;;;1.93;1.53;;;6.10;99.90;;;;;;5056102;28;20220;-63
2024/02/03 08:37:28;;;;;;;2.07;1.93;;;6.20;99.90;;;;;;5059040;28;20679;-63
2024/02/03 08:39:57;;;;;;;1.70;1.70;;;;;;;;;;5037083;28;20216;-62
2024/02/03 08:42:26;;;;;;;2.13;1.70;;;6.60;99.90;;;;;;5034743;28;20658;-62
2024/02/03 08:44:53;;;;;;;3.23;1.90;;;7.20;99.90;;;;;;5035209;28;20224;-62
2024/02/03 08:47:24;;;;;;;2.33;0.93;;;7.90;99.90;;;;;;5034718;28;20204;-62
2024/02/03 08:49:51;;;;;;;0.77;0.77;;;8.50;99.90;;;;;;5035125;28;20284;-62
2024/02/03 08:52:19;;;;;;;1.43;1.33;;;;;;;;;;5033890;28;20324;-62
2024/02/03 08:54:46;;;;;;;0.70;0.70;;;;;;;;;;5034487;28;20675;-62
2024/02/03 08:57:14;;;;;;;0.83;0.60;;;9.20;99.90;;;;;;5039715;28;20196;-62
2024/02/03 08:59:41;;;;;;;0.63;0.60;;;;;;;;;;5054458;28;20219;-62
2024/02/03 09:02:08;;;;;;;0.80;0.80;;;9.80;99.90;;;;;;5053590;28;20233;-62
2024/02/03 09:04:35;;;;;;;1.60;0.50;;;;;;;;;;5054397;28;20207;-62
2024/02/03 09:07:03;;;;;;;1.37;0.43;;;;;;;;;;5054642;28;20208;-63
2024/02/03 09:09:29;;;;;;;0.53;0.40;;;10.60;99.90;;;;;;5053459;28;20208;-63
2024/02/03 09:11:57;;;;;;;0.50;0.50;;;;;;;;;;5053559;28;20228;-63
2024/02/03 09:14:25;;;;;;;0.57;0.57;;;11.70;99.90;;;;;;5054121;28;20201;-63
2024/02/03 09:16:52;;;;;;;0.60;0.60;;;12.20;99.90;;;;;;5054403;28;20254;-63
2024/02/03 09:19:19;;;;;;;1.17;0.67;;;;;;;;;;5054221;28;20224;-63
2024/02/03 09:21:47;;;;;;;0.73;0.70;;;;;;;;;;5054130;28;20598;-61
2024/02/03 09:24:15;;;;;;;0.57;0.57;;;;;;;;;;5053542;28;20436;-64
2024/02/03 09:26:43;;;;;;;0.70;0.50;;;12.70;99.90;;;;;;5051631;28;20297;-64
2024/02/03 09:29:11;;;;;;;1.87;0.83;;;;;;;;;;5033640;28;20201;-65
2024/02/03 09:31:39;;;;;;;0.87;0.87;;;;;;;;;;5032559;28;20225;-61
2024/02/03 09:34:07;;;;;;;0.50;0.50;;;13.00;99.90;;;;;;5025265;28;20201;-61
2024/02/03 09:36:34;;;;;;;1.90;0.70;;;13.30;99.90;;;;;;5045331;28;20284;-61
2024/02/03 09:39:02;;;;;;;0.80;0.80;;;13.50;99.90;;;;;;5028718;28;20215;-61
2024/02/03 09:41:29;;;;;;;0.77;0.77;;;13.50;99.90;;;;;;5038474;28;20221;-61
2024/02/03 09:43:57;;;;;;;1.40;0.90;;;;;;;;;;5030144;28;20253;-61
2024/02/03 09:46:24;;;;;;;2.13;1.33;;;14.10;99.90;;;;;;5039334;28;20587;-66
2024/02/03 09:48:52;;;;;;;1.47;1.37;;;;;;;;;;5033438;28;20255;-62
2024/02/03 09:51:20;;;;;;;1.53;1.40;;;;;;;;;;5029402;28;20229;-65
2024/02/03 09:53:48;;;;;;;1.20;1.10;;;;;;;;;;5040548;28;20206;-62
2024/02/03 09:56:15;;;;;;;1.07;1.00;;;;;;;;;;5033779;28;20201;-62
2024/02/03 09:58:42;;;;;;;0.70;0.70;;;14.30;99.90;;;;;;5033364;28;20593;-62
2024/02/03 10:01:09;;;;;;;1.30;1.20;;;14.20;99.90;;;;;;5033492;28;20226;-62
2024/02/03 10:03:36;;;;;;;1.30;1.30;;;13.90;99.90;;;;;;5032703;28;20636;-62
2024/02/03 10:06:05;;;;;;;0.93;0.83;;;13.90;99.90;;;;;;5033067;28;20202;-62
2024/02/03 10:08:32;;;;;;;0.90;0.90;;;13.30;99.90;;;;;;5033054;28;20202;-62
2024/02/03 10:10:59;;;;;;;1.10;1.10;;;12.90;99.90;;;;;;5033086;28;20315;-61
2024/02/03 10:13:27;;;;;;;2.00;1.30;;;12.40;99.90;;;;;;5030041;28;20318;-61
2024/02/03 10:16:01;;;;;;;1.07;1.07;;;;;;;;;;5033251;28;20289;-62
2024/02/03 10:18:29;;;;;;;0.70;0.70;;;11.90;99.90;;;;;;5030964;28;20242;-61
2024/02/03 10:20:56;;;;;;;1.20;0.97;;;12.20;99.90;;;;;;5035953;28;20270;-62
2024/02/03 10:23:25;;;;;;;1.63;1.00;;;;;;;;;;5051588;28;20282;-62
2024/02/03 10:25:57;;;;;;;4.30;1.30;;;13.20;99.90;;;;;;5052781;28;20205;-62
2024/02/03 10:28:24;;;;;;;1.00;0.90;;;13.60;99.90;;;;;;5052917;28;20828;-62
2024/02/03 10:30:55;;;;;;;0.80;0.80;;;14.00;99.90;;;;;;5052732;28;20651;-61
2024/02/03 10:33:22;;;;;;;1.23;0.80;;;14.40;99.90;;;;;;5051822;28;20201;-61
2024/02/03 10:35:49;;;;;;;2.00;1.30;;;14.90;99.90;;;;;;5052801;28;20210;-61
2024/02/03 10:38:16;;;;;;;0.87;0.87;;;14.90;99.90;;;;;;5051602;28;20202;-62
2024/02/03 10:40:46;;;;;;;0.70;0.70;;;15.10;99.90;;;;;;5052500;28;20226;-68
2024/02/03 10:43:19;;;;;;;1.43;0.70;;;;;;;;;;5049533;28;20248;-69
2024/02/03 10:45:49;;;;;;;0.83;0.73;;;;;;;;;;5032526;28;20210;-67
2024/02/03 10:48:19;;;;;;;0.50;0.50;;;14.50;99.90;;;;;;5032425;28;20273;-69
2024/02/03 10:50:49;;;;;;;0.73;0.73;;;14.60;99.90;;;;;;5032153;28;20269;-69
2024/02/03 10:53:20;;;;;;;0.53;0.50;;;14.50;99.90;;;;;;5031761;28;20207;-67
2024/02/03 10:55:54;;;;;;;1.03;0.93;;;;;;;;;;5032496;28;20203;-66
2024/02/03 10:58:23;;;;;;;1.30;0.50;;;;;;;;;;5039152;28;20677;-67
2024/02/03 11:00:51;;;;;;;0.60;0.60;;;13.40;99.90;;;;;;5052065;28;20229;-61
2024/02/03 11:03:20;;;;;;;1.87;0.87;;;13.10;99.90;;;;;;5051094;28;20552;-66
2024/02/03 11:05:47;;;;;;;0.70;0.70;;;12.90;99.90;;;;;;5052160;28;20201;-65
2024/02/03 11:08:15;;;;;;;0.73;0.67;;;12.80;99.90;;;;;;5052279;28;20291;-67
2024/02/03 11:10:42;;;;;;;0.80;0.60;;;12.90;99.90;;;;;;5052066;28;20201;-64
2024/02/03 11:13:21;;;;;;;1.17;1.07;;;13.10;99.90;;;;;;5051788;28;20314;-65
2024/02/03 11:15:48;;;;;;;0.87;0.80;;;13.00;99.90;;;;;;5046899;28;20622;-66
2024/02/03 11:18:15;;;;;;;0.73;0.73;;;13.00;99.90;;;;;;5050132;28;20814;-65
2024/02/03 11:20:42;;;;;;;2.43;0.77;;;;;;;;;;5052054;28;20221;-65
2024/02/03 11:23:15;;;;;;;1.87;1.77;;;12.80;99.90;;;;;;5051102;28;20292;-66
2024/02/03 11:25:44;;;;;;;1.17;1.17;;;12.90;99.90;;;;;;5051888;28;20201;-65
2024/02/03 11:28:11;;;;;;;2.30;0.73;;;13.00;99.90;;;;;;5052062;28;20338;-64
2024/02/03 11:30:39;;;;;;;0.60;0.60;;;;;;;;;;5050924;28;20196;-67
2024/02/03 11:33:07;;;;;;;0.80;0.80;;;;;;;;;;5050656;28;20236;-69
2024/02/03 11:35:35;;;;;;;0.80;0.80;;;;;;;;;;5051635;28;20588;-68
2024/02/03 11:38:07;;;;;;;0.60;0.60;;;13.30;99.90;;;;;;5051950;28;20593;-61
2024/02/03 11:40:34;;;;;;;0.67;0.63;;;;;;;;;;5051563;28;20228;-61
2024/02/03 11:43:02;;;;;;;1.00;0.60;;;13.30;99.90;;;;;;5051139;28;20202;-62
2024/02/03 11:45:33;;;;;;;1.50;0.40;;;13.40;99.90;;;;;;5048363;28;20291;-62
2024/02/03 11:48:05;;;;;;;0.50;0.50;;;13.50;99.90;;;;;;5049540;28;20541;-62
2024/02/03 11:50:32;;;;;;;0.60;0.60;;;;;;;;;;5049598;28;20573;-62
2024/02/03 11:53:00;;;;;;;0.77;0.40;;;;;;;;;;5053246;28;20259;-62
2024/02/03 11:55:26;;;;;;;0.40;0.40;;;13.50;99.90;;;;;;5051159;28;20205;-62
2024/02/03 11:57:53;;;;;;;0.60;0.60;;;13.50;99.90;;;;;;5054356;28;20197;-62
2024/02/03 12:00:21;;;;;;;0.97;0.57;;;;;;;;;;5052973;28;20678;-62
2024/02/03 12:02:48;;;;;;;1.43;1.13;;;13.40;99.90;;;;;;5055328;28;20229;-63
2024/02/03 12:05:17;;;;;;;0.87;0.63;;;;;;;;;;5055820;28;20200;-62
2024/02/03 12:07:45;;;;;;;0.80;0.60;;;13.60;99.90;;;;;;5056825;28;20202;-63
2024/02/03 12:10:13;;;;;;;0.30;0.30;;;13.60;99.90;;;;;;5059432;28;20201;-63
2024/02/03 12:12:41;;;;;;;0.57;0.57;;;13.70;99.90;;;;;;5054566;28;20252;-62
2024/02/03 12:15:10;;;;;;;0.60;0.60;;;14.30;99.90;;;;;;5054669;28;20193;-62
2024/02/03 12:17:37;;;;;;;0.60;0.60;;;13.60;99.90;;;;;;5052853;28;20198;-62
2024/02/03 12:20:05;;;;;;;0.60;0.40;;;13.50;99.90;;;;;;5055097;28;20279;-62
2024/02/03 12:22:34;;;;;;;0.60;0.60;;;13.40;99.90;;;;;;5052669;28;20631;-62
2024/02/03 12:25:01;;;;;;;0.50;0.50;;;;;;;;;;5055221;28;20208;-62
2024/02/03 12:27:29;;;;;;;0.77;0.40;;;13.30;99.90;;;;;;5055293;28;20208;-62
2024/02/03 12:29:57;;;;;;;0.93;0.60;;;13.30;99.90;;;;;;5055086;28;20208;-62
2024/02/03 12:32:24;;;;;;;0.93;0.40;;;;;;;;;;5053437;28;20217;-62
2024/02/03 12:34:51;;;;;;;0.40;0.40;;;13.20;99.90;;;;;;5055147;28;20632;-62
2024/02/03 12:37:21;;;;;;;0.50;0.40;;;14.20;99.90;;;;;;5055134;28;20212;-62
2024/02/03 12:39:49;;;;;;;0.40;0.40;;;13.30;99.90;;;;;;5055041;28;20263;-62
2024/02/03 12:42:16;;;;;;;0.40;0.40;;;;;;;;;;5054117;28;20283;-62
2024/02/03 12:44:43;;;;;;;1.70;0.50;;;13.30;99.90;;;;;;5054611;28;20688;-62
2024/02/03 12:47:10;;;;;;;0.57;0.57;;;13.30;99.90;;;;;;5054733;28;20210;-62
2024/02/03 12:49:37;;;;;;;1.07;0.47;;;;;;;;;;5039877;28;20195;-62
2024/02/03 12:52:05;;;;;;;1.27;0.60;;;13.20;99.90;;;;;;5033858;28;20230;-62
2024/02/03 12:54:32;;;;;;;2.83;2.10;;;;;;;;;;5034787;28;20238;-62
2024/02/03 12:57:02;;;;;;;2.27;2.10;;;;;;;;;;5035702;28;20272;-62
2024/02/03 12:59:29;;;;;;;3.57;2.37;;;13.40;99.90;;;;;;5034976;28;20260;-63
2024/02/03 13:01:56;;;;;;;1.43;1.43;;;;;;;;;;5034032;28;20222;-62
2024/02/03 13:04:23;;;;;;;1.03;1.03;;;;;;;;;;5034149;28;20206;-63
2024/02/03 13:06:51;;;;;;;2.10;1.70;;;13.40;99.90;;;;;;5035485;28;20194;-62
2024/02/03 13:09:18;;;;;;;3.13;2.83;;;;;;;;;;5034390;28;20614;-62
2024/02/03 13:11:45;;;;;;;1.57;1.10;;;;;;;;;;5034267;28;20221;-62
2024/02/03 13:14:13;;;;;;;1.13;1.13;;;13.10;99.90;;;;;;5037239;28;20241;-63
2024/02/03 13:16:40;;;;;;;1.53;1.43;;;13.10;99.90;;;;;;5034620;28;20206;-62